Data for 01/09/2009

Time Sea-Level Adjusted Pressure Absolute Pressure Temperature Relative Humidity Dew Point   
(mb) (inHg) (mb) (inHg) (C) (F) (%) (C) (F)
00:05 1013 29.91 843 24.89 2 35.7 50 -7.4 18.7
00:10 1013 29.91 843 24.89 2.1 35.8 50 -7.4 18.7
00:15 1014 29.94 843 24.89 2.1 35.8 50 -7.2 19.1
00:20 1014 29.94 843 24.89 2.1 35.8 51 -6.9 19.6
00:25 1014 29.94 843 24.89 2.1 35.8 52 -6.6 20
00:30 1014 29.94 843 24.89 2.1 35.7 53 -6.5 20.3
00:35 1014 29.94 843 24.89 2 35.6 52 -6.7 19.9
00:40 1014 29.94 843 24.89 1.9 35.5 54 -6.5 20.3
00:45 1014 29.94 843 24.89 2 35.6 52 -6.8 19.7
00:50 1014 29.94 843 24.89 1.9 35.5 53 -6.8 19.8
00:55 1014 29.94 843 24.89 1.8 35.2 54 -6.7 20
01:00 1014 29.94 843 24.89 1.8 35.3 53 -6.9 19.6
01:05 1014 29.94 843 24.89 1.9 35.4 51 -7.1 19.2
01:10 1014 29.94 843 24.89 2.1 35.7 51 -7.1 19.3
01:15 1014 29.94 844 24.92 2.1 35.8 50 -7.2 19.1
01:20 1014 29.94 844 24.92 2.1 35.8 51 -6.9 19.6
01:25 1015 29.97 844 24.92 1.9 35.5 56 -6.1 21.1
01:30 1015 29.97 844 24.92 1.7 35.1 58 -5.5 22
01:35 1015 29.97 844 24.92 1.6 34.9 59 -5.5 22.1
01:40 1015 29.97 844 24.92 1.6 34.8 60 -5.4 22.2
01:45 1015 29.97 844 24.92 1.5 34.8 60 -5.4 22.3
01:50 1015 29.97 844 24.92 1.5 34.7 61 -5.1 22.8
01:55 1015 29.97 845 24.95 1.2 34.2 66 -4.5 23.9
02:00 1016 30 845 24.95 1 33.7 69 -4.1 24.7
02:05 1016 30 845 24.95 0.8 33.4 71 -3.9 25
02:10 1016 30 845 24.95 0.7 33.2 71 -4 24.8
02:15 1016 30 845 24.95 0.7 33.2 69 -4.5 24
02:20 1016 30 845 24.95 0.8 33.4 69 -4.3 24.3
02:25 1016 30 845 24.95 0.9 33.6 70 -3.9 24.9
02:30 1016 30 846 24.98 0.9 33.6 70 -4 24.8
02:35 1017 30.03 846 24.98 0.9 33.7 73 -3.4 25.9
02:40 1017 30.03 846 24.98 0.5 33 78 -2.8 27
02:45 1017 30.03 846 24.98 0.2 32.3 83 -2.4 27.8
02:50 1017 30.03 846 24.98 0 32 83 -2.5 27.5
02:55 1017 30.03 846 24.98 -0 32 83 -2.6 27.2
03:00 1017 30.03 846 24.98 -0.2 31.7 86 -2.2 28
03:05 1017 30.03 846 24.98 -0.3 31.4 88 -2.1 28.2
03:10 1017 30.03 846 24.98 -0.5 31.1 89 -2 28.3
03:15 1017 30.03 846 24.98 -0.6 30.9 90 -2.1 28.2
03:20 1017 30.03 846 24.98 -0.6 30.9 89 -2.2 28
03:25 1017 30.03 846 24.98 -0.6 30.9 88 -2.4 27.7
03:30 1017 30.03 847 25.01 -0.6 31 88 -2.3 27.9
03:35 1018 30.06 847 25.01 -0.6 31 88 -2.3 27.8
03:40 1018 30.06 847 25.01 -0.5 31.2 87 -2.4 27.8
03:45 1018 30.06 847 25.01 -0.5 31.1 89 -2.1 28.2
03:50 1018 30.06 847 25.01 -0.5 31 91 -1.9 28.6
03:55 1018 30.06 847 25.01 -0.6 30.8 92 -1.7 28.9
04:00 1018 30.06 847 25.01 -0.8 30.6 94 -1.7 29
04:05 1018 30.06 847 25.01 -0.9 30.4 95 -1.6 29.1
04:10 1018 30.06 848 25.04 -0.9 30.4 95 -1.7 29
04:15 1019 30.09 848 25.04 -0.8 30.5 95 -1.6 29.1
04:20 1019 30.09 848 25.04 -0.8 30.5 95 -1.5 29.2
04:25 1019 30.09 848 25.04 -0.8 30.5 95 -1.5 29.3
04:30 1019 30.09 848 25.04 -0.9 30.4 94 -1.7 29
04:35 1019 30.09 848 25.04 -1 30.2 94 -1.9 28.6
04:40 1019 30.09 848 25.04 -1 30.1 93 -2.1 28.3
04:45 1019 30.09 849 25.07 -1.1 30 92 -2.2 28
04:50 1019 30.09 849 25.07 -1.2 29.8 92 -2.4 27.7
04:55 1020 30.12 849 25.07 -1.2 29.8 91 -2.5 27.6
05:00 1020 30.12 849 25.07 -1.2 29.8 91 -2.6 27.4
05:05 1020 30.12 849 25.07 -1.2 29.9 91 -2.5 27.4
05:10 1020 30.12 849 25.07 -1.2 29.9 91 -2.5 27.5
05:15 1020 30.12 850 25.1 -1.2 29.9 91 -2.4 27.6
05:20 1020 30.12 850 25.1 -1.2 29.9 91 -2.4 27.7
05:25 1021 30.15 850 25.1 -1.2 29.8 91 -2.4 27.6
05:30 1021 30.15 850 25.1 -1.2 29.8 91 -2.5 27.5
05:35 1021 30.15 850 25.1 -1.4 29.5 93 -2.4 27.7
05:40 1021 30.15 850 25.1 -1.7 29 94 -2.6 27.4
05:45 1021 30.15 850 25.1 -1.7 28.9 94 -2.7 27.2
05:50 1021 30.15 850 25.1 -1.7 29 92 -2.8 27
05:55 1021 30.15 851 25.13 -1.6 29.2 91 -2.8 27
06:00 1022 30.18 851 25.13 -1.5 29.4 89 -3 26.6
06:05 1022 30.18 851 25.13 -1.4 29.5 88 -3.2 26.2
06:10 1022 30.18 851 25.13 -1.4 29.5 87 -3.3 26.1
06:15 1022 30.18 851 25.13 -1.3 29.7 86 -3.4 25.9
06:20 1022 30.18 851 25.13 -1.2 29.9 87 -3 26.6
06:25 1022 30.18 851 25.13 -1.1 30 86 -3.2 26.3
06:30 1022 30.18 851 25.13 -1 30.2 85 -3.3 26.1
06:35 1022 30.18 851 25.13 -1 30.1 84 -3.4 25.8
06:40 1022 30.18 851 25.13 -1.1 30.1 84 -3.5 25.7
06:45 1022 30.18 852 25.16 -1.1 29.9 86 -3.3 26.1
06:50 1023 30.21 852 25.16 -1.4 29.5 86 -3.3 26
06:55 1023 30.21 852 25.16 -1.4 29.5 85 -3.6 25.5
07:00 1023 30.21 852 25.16 -1.4 29.6 86 -3.5 25.8
07:05 1023 30.21 852 25.16 -1.3 29.6 87 -3.3 26.1
07:10 1023 30.21 852 25.16 -1.5 29.3 87 -3.4 25.9
07:15 1023 30.21 852 25.16 -1.7 29 88 -3.4 25.9
07:20 1023 30.21 852 25.16 -1.8 28.8 88 -3.5 25.8
07:25 1023 30.21 852 25.16 -1.8 28.8 89 -3.4 25.9
07:30 1023 30.21 852 25.16 -1.8 28.8 89 -3.3 26
07:35 1023 30.21 852 25.16 -1.8 28.8 89 -3.4 25.9
07:40 1023 30.21 852 25.16 -1.9 28.6 89 -3.6 25.6
07:45 1023 30.21 853 25.19 -2 28.5 88 -3.8 25.2
07:50 1023 30.21 853 25.19 -1.9 28.6 86 -4 24.9
07:55 1024 30.24 853 25.19 -1.7 28.9 86 -3.8 25.1
08:00 1024 30.24 853 25.19 -1.6 29.1 84 -3.9 25
08:05 1024 30.24 853 25.19 -1.6 29.2 84 -4 24.9
08:10 1024 30.24 853 25.19 -1.5 29.3 82 -4.1 24.6
08:15 1024 30.24 853 25.19 -1.5 29.4 82 -4.1 24.6
08:20 1024 30.24 853 25.19 -1.4 29.5 83 -3.9 25
08:25 1024 30.24 853 25.19 -1.4 29.4 86 -3.5 25.8
08:30 1024 30.24 853 25.19 -1.6 29.2 88 -3.3 26.1
08:35 1024 30.24 853 25.19 -2.1 28.3 91 -3.3 26
08:40 1024 30.24 853 25.19 -2.3 28 91 -3.5 25.7
08:45 1024 30.24 853 25.19 -2.3 27.8 92 -3.4 25.8
08:50 1024 30.24 854 25.22 -2.3 27.9 92 -3.4 25.8
08:55 1024 30.24 854 25.22 -2.2 28.1 91 -3.4 25.8
09:00 1025 30.27 854 25.22 -2.3 27.9 92 -3.4 25.8
09:05 1025 30.27 854 25.22 -2 28.3 90 -3.4 25.9
09:10 1025 30.27 854 25.22 -1.8 28.8 89 -3.4 25.9
09:15 1025 30.27 854 25.22 -2 28.5 90 -3.5 25.8
09:20 1025 30.27 854 25.22 -1.8 28.8 88 -3.5 25.6
09:25 1025 30.27 854 25.22 -1.8 28.7 88 -3.5 25.6
09:30 1025 30.27 854 25.22 -1.8 28.8 87 -3.6 25.5
09:35 1025 30.27 854 25.22 -1.6 29.2 85 -3.9 25.1
09:40 1025 30.27 854 25.22 -1.4 29.5 84 -3.7 25.3
09:45 1025 30.27 855 25.25 -1.1 30 83 -3.6 25.5
09:50 1025 30.27 855 25.25 -1.2 29.9 84 -3.6 25.5
09:55 1026 30.3 855 25.25 -1.1 30 83 -3.6 25.5
10:00 1025 30.27 855 25.25 -1.4 29.4 85 -3.6 25.5
10:05 1025 30.27 855 25.25 -1.6 29.1 85 -3.8 25.2
10:10 1025 30.27 855 25.25 -1.7 28.9 85 -3.9 25
10:15 1025 30.27 855 25.25 -1.3 29.6 83 -3.9 25
10:20 1026 30.3 855 25.25 -1.6 29 85 -3.9 25
10:25 1026 30.3 855 25.25 -1.3 29.6 84 -3.7 25.3
10:30 1026 30.3 855 25.25 -1.1 30 83 -3.7 25.3
10:35 1026 30.3 855 25.25 -1 30.1 81 -3.8 25.1
10:40 1026 30.3 855 25.25 -1 30.2 81 -3.8 25.1
10:45 1026 30.3 855 25.25 -1.4 29.4 84 -3.9 25.1
10:50 1026 30.3 855 25.25 -1.4 29.4 84 -3.7 25.3
10:55 1026 30.3 855 25.25 -1.3 29.7 84 -3.7 25.3
11:00 1026 30.3 855 25.25 -1.4 29.4 85 -3.6 25.5
11:05 1026 30.3 855 25.25 -1.7 29 86 -3.7 25.3
11:10 1026 30.3 855 25.25 -1.7 28.9 85 -3.9 24.9
11:15 1026 30.3 855 25.25 -1.9 28.5 87 -3.8 25.1
11:20 1026 30.3 855 25.25 -2 28.5 87 -3.9 25
11:25 1026 30.3 855 25.25 -1.7 28.9 85 -4 24.9
11:30 1026 30.3 855 25.25 -1.6 29.1 84 -3.9 24.9
11:35 1026 30.3 855 25.25 -1.3 29.7 82 -4 24.7
11:40 1026 30.3 855 25.25 -0.7 30.7 79 -4 24.8
11:45 1026 30.3 855 25.25 -0.3 31.5 76 -4.1 24.7
11:50 1026 30.3 855 25.25 0.8 33.5 70 -4.1 24.7
11:55 1026 30.3 855 25.25 1.2 34.1 70 -3.6 25.4
12:00 1026 30.3 855 25.25 1.3 34.3 67 -4.2 24.5
12:05 1026 30.3 855 25.25 1.7 35.1 67 -3.7 25.3
12:10 1026 30.3 855 25.25 2.2 36 63 -4 24.7
12:15 1026 30.3 855 25.25 3.1 37.5 61 -3.8 25.1
12:20 1026 30.3 855 25.25 3 37.5 62 -3.5 25.7
12:25 1026 30.3 855 25.25 3.1 37.6 62 -3.6 25.6
12:30 1025 30.27 855 25.25 3.1 37.6 62 -3.4 25.8
12:35 1025 30.27 855 25.25 3.1 37.6 59 -4 24.8
12:40 1025 30.27 855 25.25 3.4 38.2 59 -3.8 25.1
12:45 1025 30.27 854 25.22 3.4 38.1 59 -3.9 25.1
12:50 1025 30.27 854 25.22 3.4 38.1 60 -3.5 25.6
12:55 1025 30.27 854 25.22 3.3 38 60 -3.7 25.4
13:00 1025 30.27 854 25.22 3.3 38 59 -3.8 25.1
13:05 1025 30.27 854 25.22 3.7 38.6 58 -3.9 25
13:10 1025 30.27 854 25.22 3.7 38.6 58 -3.9 25
13:15 1025 30.27 854 25.22 3.7 38.7 57 -4 24.9
13:20 1025 30.27 854 25.22 3.9 39 56 -4.1 24.6
13:25 1025 30.27 854 25.22 4.2 39.6 55 -4.1 24.6
13:30 1025 30.27 854 25.22 4.4 40 52 -4.5 23.8
13:35 1025 30.27 854 25.22 4.9 40.8 52 -4.1 24.7
13:40 1025 30.27 854 25.22 4.7 40.5 52 -4.4 24.1
13:45 1025 30.27 855 25.25 4.8 40.6 55 -3.5 25.7
13:50 1025 30.27 855 25.25 4 39.1 58 -3.5 25.6
13:55 1025 30.27 855 25.25 3 37.4 61 -3.7 25.3
14:00 1026 30.3 855 25.25 3.2 37.7 59 -4.1 24.6
14:05 1026 30.3 855 25.25 3.5 38.3 57 -4.2 24.5
14:10 1026 30.3 855 25.25 3.9 39 54 -4.5 24
14:15 1025 30.27 855 25.25 4.3 39.7 53 -4.6 23.8
14:20 1025 30.27 855 25.25 4.3 39.8 53 -4.5 23.9
14:25 1025 30.27 855 25.25 4.4 40 52 -4.5 23.8
14:30 1025 30.27 855 25.25 4.2 39.6 52 -4.6 23.6
14:35 1025 30.27 855 25.25 4.2 39.6 52 -4.9 23.3
14:40 1025 30.27 855 25.25 4.3 39.7 52 -4.8 23.4
14:45 1025 30.27 854 25.22 4.2 39.5 53 -4.5 23.9
14:50 1025 30.27 854 25.22 4.2 39.6 52 -4.7 23.6
14:55 1025 30.27 854 25.22 4.3 39.7 53 -4.6 23.7
15:00 1025 30.27 854 25.22 4.2 39.6 52 -4.9 23.2
15:05 1025 30.27 854 25.22 4.4 40 50 -5 22.9
15:10 1025 30.27 854 25.22 4.5 40.2 51 -4.8 23.3
15:15 1025 30.27 854 25.22 4.6 40.3 50 -5 23
15:20 1025 30.27 855 25.25 4.5 40.1 52 -4.6 23.8
15:25 1025 30.27 855 25.25 4.3 39.7 51 -5 22.9
15:30 1025 30.27 855 25.25 4.5 40.1 51 -4.9 23.2
15:35 1025 30.27 855 25.25 4.6 40.2 50 -5 22.9
15:40 1025 30.27 855 25.25 4 39.1 53 -4.8 23.3
15:45 1025 30.27 854 25.22 4.2 39.6 51 -5.1 22.8
15:50 1025 30.27 854 25.22 4.4 39.9 51 -4.9 23.1
15:55 1025 30.27 854 25.22 4.3 39.7 52 -4.6 23.7
16:00 1025 30.27 854 25.22 4.2 39.5 52 -4.8 23.3
16:05 1025 30.27 854 25.22 4.2 39.5 52 -4.9 23.1
16:10 1025 30.27 854 25.22 4.4 39.8 51 -5 23
16:15 1025 30.27 854 25.22 4.4 39.8 50 -5.1 22.8
16:20 1025 30.27 854 25.22 4.3 39.8 49 -5.5 22.1
16:25 1025 30.27 854 25.22 4.3 39.7 49 -5.6 22
16:30 1025 30.27 855 25.25 4.2 39.5 49 -5.6 21.9
16:35 1025 30.27 855 25.25 3.8 38.9 53 -4.8 23.4
16:40 1025 30.27 855 25.25 3.2 37.7 54 -5.3 22.5
16:45 1026 30.3 855 25.25 3.2 37.8 52 -5.7 21.7
16:50 1026 30.3 855 25.25 3.1 37.6 54 -5.3 22.4
16:55 1026 30.3 855 25.25 2.6 36.7 55 -5.4 22.2
17:00 1026 30.3 855 25.25 2.3 36.1 57 -5.3 22.4
17:05 1026 30.3 855 25.25 2.1 35.7 58 -5.4 22.3
17:10 1026 30.3 855 25.25 1.9 35.4 57 -5.6 21.9
17:15 1026 30.3 855 25.25 1.8 35.2 55 -6.2 20.8
17:20 1026 30.3 855 25.25 1.7 35.1 56 -6 21.2
17:25 1026 30.3 855 25.25 1.4 34.5 58 -6 21.1
17:30 1026 30.3 855 25.25 1 33.7 58 -6.3 20.6
17:35 1026 30.3 855 25.25 0.9 33.7 59 -6.2 20.9
17:40 1026 30.3 855 25.25 0.7 33.3 58 -6.5 20.2
17:45 1026 30.3 855 25.25 0.6 33.1 58 -6.7 19.9
17:50 1026 30.3 855 25.25 0.6 33.1 57 -6.9 19.6
17:55 1026 30.3 855 25.25 0.5 33 56 -7.4 18.7
18:00 1026 30.3 855 25.25 0.5 32.9 54 -7.8 17.9
18:05 1026 30.3 855 25.25 0.5 32.9 54 -7.7 18.2
18:10 1026 30.3 855 25.25 0.5 32.9 51 -8.4 16.9
18:15 1026 30.3 855 25.25 0.6 33.1 52 -8.2 17.3
18:20 1026 30.3 855 25.25 0.7 33.3 51 -8.2 17.2
18:25 1026 30.3 855 25.25 0.8 33.4 53 -7.7 18.1
18:30 1026 30.3 855 25.25 0.5 32.9 54 -7.7 18.1
18:35 1026 30.3 855 25.25 0.2 32.4 55 -7.9 17.8
18:40 1026 30.3 855 25.25 0.1 32.1 53 -8.5 16.8
18:45 1026 30.3 855 25.25 0.1 32.1 53 -8.4 17
18:50 1026 30.3 855 25.25 -0.1 31.8 53 -8.4 16.8
18:55 1026 30.3 855 25.25 -0.2 31.7 54 -8.4 16.9
19:00 1026 30.3 855 25.25 -0.3 31.5 55 -8.3 17
19:05 1026 30.3 855 25.25 -0.3 31.5 54 -8.5 16.8
19:10 1026 30.3 855 25.25 -0.2 31.6 54 -8.5 16.8
19:15 1026 30.3 855 25.25 -0.3 31.5 54 -8.6 16.6
19:20 1026 30.3 855 25.25 -0.5 31.2 55 -8.5 16.6
19:25 1026 30.3 855 25.25 -0.7 30.8 56 -8.4 17
19:30 1026 30.3 855 25.25 -0.9 30.5 57 -8.4 16.8
19:35 1026 30.3 855 25.25 -1.1 30 59 -8.2 17.2
19:40 1026 30.3 856 25.28 -1.1 30.1 58 -8.3 17.1
19:45 1026 30.3 856 25.28 -1 30.3 58 -8.3 17.1
19:50 1027 30.33 856 25.28 -1.1 30.1 58 -8.2 17.2
19:55 1027 30.33 856 25.28 -1.3 29.6 59 -8.3 17
20:00 1027 30.33 856 25.28 -1.5 29.4 59 -8.5 16.6
20:05 1027 30.33 856 25.28 -1.4 29.4 60 -8.3 17.1
20:10 1027 30.33 856 25.28 -1.5 29.4 60 -8.2 17.3
20:15 1027 30.33 856 25.28 -1.5 29.3 61 -8 17.5
20:20 1027 30.33 856 25.28 -1.3 29.6 60 -8.1 17.4
20:25 1027 30.33 856 25.28 -1.5 29.3 61 -8 17.5
20:30 1027 30.33 856 25.28 -1.6 29.1 61 -8.1 17.4
20:35 1027 30.33 856 25.28 -1.6 29.1 62 -8 17.6
20:40 1027 30.33 856 25.28 -1.5 29.3 60 -8.3 17.1
20:45 1027 30.33 856 25.28 -1.5 29.4 60 -8.2 17.3
20:50 1027 30.33 856 25.28 -1.4 29.5 58 -8.6 16.5
20:55 1027 30.33 856 25.28 -1.3 29.7 58 -8.6 16.6
21:00 1027 30.33 856 25.28 -1.3 29.7 57 -8.6 16.4
21:05 1027 30.33 856 25.28 -1.3 29.8 58 -8.5 16.7
21:10 1027 30.33 856 25.28 -1.2 29.9 57 -8.6 16.6
21:15 1027 30.33 856 25.28 -1.1 30.1 57 -8.5 16.8
21:20 1027 30.33 856 25.28 -0.8 30.5 56 -8.6 16.6
21:25 1027 30.33 856 25.28 -0.7 30.8 57 -8.1 17.4
21:30 1027 30.33 856 25.28 -0.7 30.7 57 -8.2 17.3
21:35 1027 30.33 856 25.28 -0.8 30.6 57 -8.2 17.2
21:40 1027 30.33 856 25.28 -0.7 30.7 57 -8.2 17.2
21:45 1027 30.33 856 25.28 -0.8 30.6 56 -8.4 16.8
21:50 1027 30.33 856 25.28 -0.7 30.8 54 -8.9 16.1
21:55 1027 30.33 856 25.28 -0.3 31.5 53 -8.8 16.2
22:00 1027 30.33 856 25.28 -0.2 31.6 53 -8.7 16.3
22:05 1027 30.33 856 25.28 -0.3 31.4 52 -9.1 15.7
22:10 1027 30.33 856 25.28 -0.5 31.2 52 -9.1 15.6
22:15 1026 30.3 856 25.28 -0.7 30.8 53 -9 15.7
22:20 1026 30.3 856 25.28 -0.9 30.4 56 -8.7 16.4
22:25 1026 30.3 856 25.28 -1.1 30.1 57 -8.5 16.6
22:30 1026 30.3 856 25.28 -1.4 29.5 59 -8.4 16.9
22:35 1026 30.3 855 25.25 -1.6 29.1 58 -8.8 16.2
22:40 1026 30.3 855 25.25 -1.5 29.3 56 -9.2 15.5
22:45 1026 30.3 855 25.25 -1.3 29.6 55 -9.3 15.2
22:50 1026 30.3 855 25.25 -1.2 29.9 55 -9.2 15.4
22:55 1026 30.3 855 25.25 -1.2 29.8 54 -9.4 15.1
23:00 1026 30.3 855 25.25 -1.1 30.1 54 -9.3 15.2
23:05 1026 30.3 856 25.28 -1 30.2 53 -9.5 14.8
23:10 1027 30.33 856 25.28 -0.8 30.6 50 -9.9 14.2
23:15 1027 30.33 856 25.28 -0.5 31 50 -9.6 14.6
23:20 1027 30.33 856 25.28 -0.4 31.3 50 -9.7 14.6
23:25 1027 30.33 856 25.28 -0.4 31.3 51 -9.4 15.1
23:30 1027 30.33 856 25.28 -0.5 31.2 51 -9.4 15
23:35 1027 30.33 856 25.28 -0.6 31 51 -9.5 14.8
23:40 1027 30.33 856 25.28 -0.6 31 51 -9.4 15.1
23:45 1026 30.3 856 25.28 -0.6 30.9 51 -9.4 15.1
23:50 1026 30.3 855 25.25 -0.9 30.4 55 -8.9 16
23:55 1026 30.3 855 25.25 -1.1 30.1 52 -9.7 14.6
24:00 1026 30.3 855 25.25 -0.7 30.7 51 -9.7 14.6